Time;durP1;ratioP1;P1;durP2;ratioP2;P2;SDS_P1;SDS_P2;PMS_P1;PMS_P2;Temp;Humidity;BMP_temperature;BMP_pressure;BME280_temperature;BME280_humidity;BME280_pressure;Samples;Min_cycle;Max_cycle;Signal;HPM_P1;HPM_P2
2021/11/28 00:00:18;;;;;;;4.75;1.27;;;-1.10;96.30;;;;;;2071685;28;20296;-59
2021/11/28 00:01:21;;;;;;;3.67;1.10;;;-1.00;96.40;;;;;;2071969;28;20190;-60
2021/11/28 00:02:22;;;;;;;1.00;1.00;;;-1.10;96.20;;;;;;2070558;28;20250;-60
2021/11/28 00:03:23;;;;;;;2.13;1.25;;;-1.10;96.30;;;;;;2071457;28;20609;-60
2021/11/28 00:04:25;;;;;;;1.83;0.93;;;-1.10;96.30;;;;;;2071552;28;20166;-59
2021/11/28 00:05:27;;;;;;;1.33;1.00;;;-1.10;96.40;;;;;;2072383;28;20297;-60
2021/11/28 00:06:29;;;;;;;2.08;1.30;;;-1.00;96.50;;;;;;2072455;28;20283;-60
2021/11/28 00:14:30;;;;;;;5.93;1.17;;;-1.00;96.60;;;;;;2072941;28;20590;-60
2021/11/28 00:15:31;;;;;;;3.10;0.97;;;-1.00;96.60;;;;;;2072672;28;20189;-59
2021/11/28 00:16:32;;;;;;;2.60;1.02;;;-1.00;96.50;;;;;;2072609;28;20180;-60
2021/11/28 00:17:33;;;;;;;2.85;1.13;;;-1.00;96.50;;;;;;2072696;28;20273;-60
2021/11/28 00:18:34;;;;;;;5.85;1.00;;;-1.00;96.70;;;;;;2072726;28;20177;-58
2021/11/28 00:19:35;;;;;;;0.90;0.80;;;-1.10;96.80;;;;;;2072320;28;20648;-58
2021/11/28 00:20:36;;;;;;;3.30;0.90;;;-1.10;96.80;;;;;;2072643;28;20241;-59
2021/11/28 00:21:37;;;;;;;3.37;1.20;;;-1.10;96.80;;;;;;2072642;28;20205;-60
2021/11/28 00:22:39;;;;;;;5.77;1.17;;;-1.10;96.80;;;;;;2072786;28;20253;-60
2021/11/28 00:23:41;;;;;;;3.22;1.23;;;-1.10;96.70;;;;;;2072789;28;20201;-59
2021/11/28 00:24:41;;;;;;;1.17;0.93;;;-1.10;96.90;;;;;;2072760;28;20192;-60
2021/11/28 00:25:42;;;;;;;2.20;1.27;;;-1.20;97.10;;;;;;2072658;28;20181;-60
2021/11/28 00:26:44;;;;;;;2.20;1.23;;;-1.20;97.20;;;;;;2072780;28;20184;-60
2021/11/28 00:27:46;;;;;;;2.05;1.20;;;-1.10;97.30;;;;;;2072657;28;20275;-60
2021/11/28 00:28:47;;;;;;;2.30;1.10;;;-1.10;97.40;;;;;;2072716;28;20181;-60
2021/11/28 00:29:48;;;;;;;4.03;0.97;;;-1.10;97.50;;;;;;2072350;28;20223;-60
2021/11/28 00:30:49;;;;;;;3.90;0.83;;;-1.00;97.40;;;;;;2072759;28;20922;-60
2021/11/28 00:31:49;;;;;;;2.23;1.00;;;-1.00;97.20;;;;;;2072499;28;20178;-60
2021/11/28 00:32:52;;;;;;;2.50;1.27;;;-1.00;97.00;;;;;;2072743;28;20174;-59
2021/11/28 00:33:52;;;;;;;2.58;1.02;;;-0.90;96.90;;;;;;2072674;28;20197;-60
2021/11/28 00:34:53;;;;;;;1.13;0.90;;;-0.90;96.70;;;;;;2072046;28;20178;-60
2021/11/28 00:35:54;;;;;;;3.13;1.30;;;-0.80;96.50;;;;;;2072178;28;20178;-60
2021/11/28 00:36:54;;;;;;;1.87;1.00;;;-0.90;96.40;;;;;;2072722;28;20177;-60
2021/11/28 00:37:55;;;;;;;2.23;1.20;;;-0.90;96.50;;;;;;2072512;28;20244;-59
2021/11/28 00:38:56;;;;;;;1.97;1.17;;;-0.90;95.80;;;;;;2072658;28;20202;-60
2021/11/28 00:39:56;;;;;;;4.57;0.90;;;-0.90;95.70;;;;;;2072328;28;20198;-60
2021/11/28 00:40:57;;;;;;;2.33;1.17;;;-0.90;96.00;;;;;;2072629;28;20166;-60
2021/11/28 00:42:00;;;;;;;5.17;1.13;;;-0.90;96.00;;;;;;2072716;28;20716;-60
2021/11/28 00:43:01;;;;;;;1.42;0.90;;;-1.00;96.00;;;;;;2072599;28;20181;-60
2021/11/28 00:44:02;;;;;;;1.73;1.10;;;-1.00;95.90;;;;;;2072778;28;20184;-60
2021/11/28 00:45:04;;;;;;;3.55;1.38;;;-1.00;95.80;;;;;;2072726;28;20185;-60
2021/11/28 00:46:05;;;;;;;1.95;1.30;;;-1.00;96.00;;;;;;2072591;28;20181;-58
2021/11/28 00:47:06;;;;;;;1.77;1.10;;;-1.00;96.00;;;;;;2072577;28;20241;-60
2021/11/28 00:48:06;;;;;;;2.30;1.00;;;-1.00;96.10;;;;;;2072530;28;20186;-60
2021/11/28 00:49:14;;;;;;;1.70;1.10;;;-1.10;96.60;;;;;;2072535;28;20270;-60
2021/11/28 00:52:19;;;;;;;2.38;1.17;;;-1.10;96.60;;;;;;2072687;28;20615;-58
2021/11/28 00:53:20;;;;;;;1.27;1.00;;;-1.20;96.70;;;;;;2072509;28;20193;-60
2021/11/28 00:54:20;;;;;;;3.63;1.20;;;-1.20;96.80;;;;;;2072632;28;20185;-60
2021/11/28 00:55:21;;;;;;;1.53;1.00;;;-1.20;96.80;;;;;;2072529;28;20178;-60
2021/11/28 00:56:22;;;;;;;2.13;0.97;;;-1.20;96.70;;;;;;2072649;28;20182;-60
2021/11/28 00:57:26;;;;;;;1.13;0.90;;;-1.20;96.60;;;;;;2072627;28;20189;-60
2021/11/28 00:58:27;;;;;;;1.17;0.80;;;-1.20;96.60;;;;;;2072597;28;20273;-60
2021/11/28 00:59:28;;;;;;;1.47;0.83;;;-1.20;96.60;;;;;;2072508;28;20682;-60
2021/11/28 01:00:29;;;;;;;2.93;1.00;;;-1.20;96.50;;;;;;2072404;28;20240;-60
2021/11/28 01:01:29;;;;;;;1.53;1.00;;;-1.20;96.50;;;;;;2072546;28;20471;-60
2021/11/28 01:02:31;;;;;;;1.37;0.90;;;-1.20;96.60;;;;;;2072524;28;20189;-58
2021/11/28 01:03:32;;;;;;;1.88;1.20;;;-1.20;96.70;;;;;;2071857;28;20216;-60
2021/11/28 01:04:32;;;;;;;2.10;1.02;;;-1.20;96.80;;;;;;2072073;28;20190;-60
2021/11/28 01:05:33;;;;;;;1.60;1.20;;;-1.20;96.80;;;;;;2072651;28;20788;-60
2021/11/28 01:06:35;;;;;;;1.30;1.00;;;-1.20;96.80;;;;;;2073087;28;20173;-60
2021/11/28 01:07:38;;;;;;;5.32;0.90;;;-1.20;96.60;;;;;;2074153;28;20162;-59
2021/11/28 01:08:40;;;;;;;3.97;1.20;;;-1.20;96.70;;;;;;2074132;28;20181;-60
2021/11/28 01:09:40;;;;;;;2.35;1.20;;;-1.10;96.60;;;;;;2073496;28;20213;-60
2021/11/28 01:10:42;;;;;;;1.57;1.00;;;-1.10;96.60;;;;;;2074162;28;20238;-60
2021/11/28 01:11:42;;;;;;;2.85;1.13;;;-1.10;96.40;;;;;;2074131;28;20190;-60
2021/11/28 01:12:44;;;;;;;4.63;0.90;;;-1.20;96.40;;;;;;2074139;28;20200;-60
2021/11/28 01:13:45;;;;;;;6.72;1.23;;;-1.10;96.40;;;;;;2073906;28;20770;-60
2021/11/28 01:14:45;;;;;;;4.10;1.17;;;-1.10;96.30;;;;;;2074021;28;20184;-60
2021/11/28 01:15:46;;;;;;;1.80;1.00;;;-1.20;96.80;;;;;;2073966;28;20626;-60
2021/11/28 01:16:47;;;;;;;1.77;1.17;;;-1.10;96.20;;;;;;2074061;28;20292;-60
2021/11/28 01:17:48;;;;;;;1.70;0.90;;;-1.00;96.30;;;;;;2073942;28;20188;-60
2021/11/28 01:18:50;;;;;;;2.73;1.13;;;-1.00;96.10;;;;;;2073380;28;20185;-59
2021/11/28 01:19:50;;;;;;;2.38;0.95;;;-1.00;96.00;;;;;;2072807;28;20271;-60
2021/11/28 01:20:51;;;;;;;1.07;0.73;;;-1.00;95.70;;;;;;2074120;28;20564;-60
2021/11/28 01:22:00;;;;;;;1.90;1.00;;;-1.00;95.80;;;;;;2073874;28;20208;-60
2021/11/28 01:23:01;;;;;;;1.83;1.08;;;-1.00;95.80;;;;;;2073987;28;20621;-60
2021/11/28 01:24:02;;;;;;;2.17;1.00;;;-1.00;95.70;;;;;;2073812;28;20689;-60
2021/11/28 01:25:04;;;;;;;2.07;0.97;;;-0.90;95.70;;;;;;2073935;28;20170;-60
2021/11/28 01:26:05;;;;;;;2.65;0.80;;;-0.90;95.50;;;;;;2073904;28;20228;-60
2021/11/28 01:27:10;;;;;;;2.63;0.97;;;-0.90;95.50;;;;;;2073975;28;20193;-60
2021/11/28 01:28:11;;;;;;;3.05;1.10;;;-0.90;95.50;;;;;;2073886;28;20205;-60
2021/11/28 01:29:12;;;;;;;3.17;1.23;;;-0.90;95.60;;;;;;2073885;28;20546;-61
2021/11/28 01:30:13;;;;;;;4.17;1.00;;;-0.90;95.70;;;;;;2073549;28;20225;-60
2021/11/28 01:31:13;;;;;;;2.67;1.70;;;-0.90;95.80;;;;;;2073795;28;20170;-61
2021/11/28 01:32:15;;;;;;;1.53;1.10;;;-0.90;95.90;;;;;;2074006;28;20209;-61
2021/11/28 01:33:15;;;;;;;2.50;1.40;;;-0.80;95.70;;;;;;2073360;28;20220;-60
2021/11/28 01:34:16;;;;;;;2.57;1.20;;;-0.80;95.60;;;;;;2073164;28;20214;-60
2021/11/28 01:35:17;;;;;;;3.30;1.07;;;-0.80;95.60;;;;;;2073842;28;20173;-60
2021/11/28 01:36:19;;;;;;;1.80;1.30;;;-0.80;95.50;;;;;;2073718;28;20220;-60
2021/11/28 01:37:20;;;;;;;1.85;1.20;;;-0.70;95.30;;;;;;2073860;28;20257;-60
2021/11/28 01:38:21;;;;;;;1.90;0.97;;;-0.70;95.30;;;;;;2073845;28;20170;-61
2021/11/28 01:39:22;;;;;;;2.88;1.17;;;-0.70;95.00;;;;;;2073768;28;20205;-60
2021/11/28 01:40:23;;;;;;;1.88;1.10;;;-0.80;94.80;;;;;;2073439;28;20205;-60
2021/11/28 01:41:24;;;;;;;1.60;1.00;;;-0.80;95.00;;;;;;2073767;28;20527;-60
2021/11/28 01:42:39;;;;;;;2.40;1.07;;;-0.80;94.80;;;;;;2073851;28;20962;-60
2021/11/28 01:43:39;;;;;;;1.75;1.00;;;-0.80;94.80;;;;;;2073684;28;20610;-61
2021/11/28 01:44:40;;;;;;;1.17;0.87;;;-0.70;94.80;;;;;;2073508;28;20185;-60
2021/11/28 01:45:43;;;;;;;2.23;0.90;;;-0.80;94.80;;;;;;2073452;28;20201;-60
2021/11/28 01:46:44;;;;;;;3.25;0.98;;;-0.80;94.80;;;;;;2073544;28;20247;-60
2021/11/28 01:47:45;;;;;;;4.20;0.98;;;-0.70;94.80;;;;;;2073612;28;20668;-60
2021/11/28 01:48:47;;;;;;;1.45;1.10;;;-0.80;95.00;;;;;;2073651;28;20256;-59
2021/11/28 01:49:47;;;;;;;2.53;1.63;;;-0.80;95.30;;;;;;2073413;28;20232;-60
2021/11/28 01:50:52;;;;;;;1.70;1.23;;;-0.80;95.00;;;;;;2073611;28;20637;-58
2021/11/28 01:51:53;;;;;;;1.00;0.90;;;-0.80;95.00;;;;;;2073598;28;20643;-60
2021/11/28 01:52:54;;;;;;;1.77;1.05;;;-0.80;94.90;;;;;;2073576;28;20178;-60
2021/11/28 01:53:55;;;;;;;1.60;1.00;;;-0.80;94.80;;;;;;2073685;28;20248;-60
2021/11/28 01:54:56;;;;;;;2.85;1.05;;;-0.80;94.80;;;;;;2073594;28;20240;-60
2021/11/28 01:55:57;;;;;;;2.13;0.90;;;-0.80;94.80;;;;;;2073596;28;20178;-59
2021/11/28 01:56:58;;;;;;;2.15;1.02;;;-0.80;94.80;;;;;;2073647;28;20192;-59
2021/11/28 01:58:03;;;;;;;1.10;0.90;;;-0.80;94.80;;;;;;2073594;28;20842;-60
2021/11/28 01:59:04;;;;;;;1.70;1.00;;;-0.80;94.90;;;;;;2073605;28;20630;-60
2021/11/28 02:00:12;;;;;;;1.65;1.10;;;-0.80;94.80;;;;;;2073296;28;20210;-60
2021/11/28 02:01:16;;;;;;;1.45;1.10;;;-0.90;94.90;;;;;;2073542;28;20757;-60
2021/11/28 02:02:17;;;;;;;1.45;0.95;;;-0.80;95.00;;;;;;2073726;28;20181;-60
2021/11/28 02:03:18;;;;;;;1.60;1.07;;;-0.90;95.10;;;;;;2073371;28;20209;-59
2021/11/28 02:04:19;;;;;;;2.10;1.10;;;-1.00;95.40;;;;;;2073602;28;20217;-59
2021/11/28 02:05:23;;;;;;;1.40;0.90;;;-1.00;95.60;;;;;;2073613;28;20571;-60
2021/11/28 02:06:24;;;;;;;1.75;1.05;;;-1.00;95.70;;;;;;2073546;28;20286;-60
2021/11/28 02:07:25;;;;;;;3.27;1.17;;;-1.10;95.80;;;;;;2073411;28;20547;-60
2021/11/28 02:08:25;;;;;;;2.70;1.03;;;-1.10;95.90;;;;;;2073454;28;20174;-59
2021/11/28 02:09:26;;;;;;;1.97;1.30;;;-1.10;95.90;;;;;;2072814;28;20436;-59
2021/11/28 02:10:27;;;;;;;4.20;1.43;;;-1.10;95.90;;;;;;2073199;28;20179;-60
2021/11/28 02:11:28;;;;;;;3.67;1.27;;;-1.10;95.90;;;;;;2073424;28;20197;-60
2021/11/28 02:12:32;;;;;;;2.00;1.10;;;-1.10;95.80;;;;;;2073412;28;20634;-58
2021/11/28 02:13:33;;;;;;;1.73;1.30;;;-1.10;95.80;;;;;;2073247;28;20204;-60
2021/11/28 02:14:34;;;;;;;1.65;1.20;;;-1.00;95.80;;;;;;2073493;28;20227;-60
2021/11/28 02:15:35;;;;;;;1.30;1.20;;;-1.00;95.70;;;;;;2073435;28;20169;-58
2021/11/28 02:16:36;;;;;;;1.50;1.20;;;-1.00;95.70;;;;;;2073495;28;20178;-58
2021/11/28 02:17:37;;;;;;;2.80;1.10;;;-1.00;95.80;;;;;;2073431;28;20455;-60
2021/11/28 02:18:38;;;;;;;1.58;1.20;;;-1.00;95.70;;;;;;2073334;28;20202;-59
2021/11/28 02:19:39;;;;;;;1.67;1.00;;;-1.00;95.80;;;;;;2073025;28;20681;-60
2021/11/28 02:20:43;;;;;;;4.97;1.47;;;-1.00;95.70;;;;;;2073387;28;20280;-61
2021/11/28 02:21:44;;;;;;;2.25;1.30;;;-1.00;95.80;;;;;;2073337;28;20170;-59
2021/11/28 02:22:45;;;;;;;1.87;1.50;;;-1.00;95.80;;;;;;2073321;28;20244;-60
2021/11/28 02:23:45;;;;;;;1.63;1.10;;;-1.00;96.00;;;;;;2073436;28;20193;-59
2021/11/28 02:24:46;;;;;;;2.53;1.30;;;-1.00;95.80;;;;;;2073277;28;20220;-60
2021/11/28 02:25:49;;;;;;;2.35;1.20;;;-1.00;95.70;;;;;;2073382;28;20651;-60
2021/11/28 02:26:49;;;;;;;3.47;1.27;;;-1.00;95.70;;;;;;2073331;28;20182;-60
2021/11/28 02:27:54;;;;;;;2.00;1.10;;;-1.00;95.80;;;;;;2073456;28;20180;-60
2021/11/28 02:28:55;;;;;;;1.20;0.80;;;-1.00;95.60;;;;;;2072700;28;20196;-60
2021/11/28 02:29:56;;;;;;;1.40;1.07;;;-1.00;95.60;;;;;;2072391;28;20244;-60
2021/11/28 02:30:57;;;;;;;1.13;0.97;;;-1.00;95.50;;;;;;2073326;28;20174;-60
2021/11/28 02:31:58;;;;;;;1.70;1.02;;;-0.90;95.50;;;;;;2073421;28;20236;-60
2021/11/28 02:32:59;;;;;;;1.33;1.00;;;-0.90;95.40;;;;;;2073296;28;20570;-59
2021/11/28 02:34:00;;;;;;;0.77;0.77;;;-0.90;95.50;;;;;;2073507;28;20212;-60
2021/11/28 02:35:01;;;;;;;2.00;1.13;;;-0.90;95.60;;;;;;2073268;28;20417;-60
2021/11/28 02:36:02;;;;;;;3.93;1.40;;;-0.90;95.70;;;;;;2073479;28;20188;-60
2021/11/28 02:37:04;;;;;;;2.13;1.23;;;-0.90;95.80;;;;;;2073302;28;20189;-60
2021/11/28 02:38:08;;;;;;;1.88;1.30;;;-0.90;95.80;;;;;;2073316;28;20194;-60
2021/11/28 02:39:09;;;;;;;2.55;1.60;;;-0.90;95.80;;;;;;2073203;28;20182;-57
2021/11/28 02:40:16;;;;;;;3.90;1.42;;;-0.90;95.70;;;;;;2072861;28;20696;-59
2021/11/28 02:41:18;;;;;;;3.58;1.40;;;-0.90;95.60;;;;;;2073381;28;20173;-61
2021/11/28 02:42:21;;;;;;;4.13;1.55;;;-0.90;95.80;;;;;;2073392;28;20711;-59
2021/11/28 02:43:23;;;;;;;5.00;1.42;;;-0.90;95.70;;;;;;2073262;28;20173;-59
2021/11/28 02:44:24;;;;;;;2.28;1.27;;;-0.90;95.60;;;;;;2073405;28;20185;-60
2021/11/28 02:45:28;;;;;;;1.08;0.98;;;-0.80;95.60;;;;;;2073286;28;20162;-60
2021/11/28 02:46:29;;;;;;;3.97;1.17;;;-0.80;95.70;;;;;;2073298;28;20616;-60
2021/11/28 02:47:30;;;;;;;3.90;1.10;;;-0.80;95.60;;;;;;2073258;28;20224;-58
2021/11/28 02:48:30;;;;;;;1.73;1.00;;;-0.80;95.60;;;;;;2073278;28;20285;-59
2021/11/28 02:49:31;;;;;;;2.23;1.00;;;-0.70;95.50;;;;;;2073053;28;20208;-60
2021/11/28 02:50:32;;;;;;;1.73;1.10;;;-0.70;95.50;;;;;;2073108;28;20603;-60
2021/11/28 02:51:35;;;;;;;1.57;1.03;;;-0.70;95.40;;;;;;2073104;28;20181;-59
2021/11/28 02:52:35;;;;;;;2.00;1.20;;;-0.70;95.50;;;;;;2073292;28;20264;-60
2021/11/28 02:53:36;;;;;;;1.23;1.00;;;-0.70;95.60;;;;;;2073251;28;20184;-59
2021/11/28 02:54:39;;;;;;;2.42;1.00;;;-0.70;95.50;;;;;;2073214;28;20186;-60
2021/11/28 02:55:45;;;;;;;1.40;1.05;;;-0.70;95.50;;;;;;2073249;28;20664;-60
2021/11/28 02:56:46;;;;;;;1.20;1.00;;;-0.70;95.60;;;;;;2073318;28;20184;-59
2021/11/28 02:57:47;;;;;;;2.42;1.02;;;-0.70;95.60;;;;;;2072578;28;20186;-60
2021/11/28 02:58:47;;;;;;;3.00;0.97;;;-0.70;95.60;;;;;;2072604;28;20514;-60
2021/11/28 02:59:49;;;;;;;1.23;0.90;;;-0.70;95.50;;;;;;2072725;28;20700;-60
2021/11/28 03:01:14;;;;;;;1.15;1.00;;;-0.70;95.50;;;;;;2073167;28;20646;-60
2021/11/28 03:02:15;;;;;;;2.13;1.05;;;-0.70;95.30;;;;;;2073073;28;20724;-58
2021/11/28 03:03:16;;;;;;;1.20;1.00;;;-0.70;95.20;;;;;;2073138;28;20165;-60
2021/11/28 03:04:17;;;;;;;1.70;1.10;;;-0.70;95.20;;;;;;2073183;28;20173;-60
2021/11/28 03:05:18;;;;;;;1.33;1.13;;;-0.60;95.10;;;;;;2071553;28;20174;-61
2021/11/28 03:06:20;;;;;;;1.93;1.23;;;-0.60;95.20;;;;;;2073094;28;20289;-60
2021/11/28 03:07:21;;;;;;;3.25;1.08;;;-0.70;95.30;;;;;;2072888;28;20478;-60
2021/11/28 03:08:22;;;;;;;2.20;0.90;;;-0.70;95.30;;;;;;2073173;28;20212;-60
2021/11/28 03:09:22;;;;;;;4.70;1.30;;;-0.60;95.30;;;;;;2072946;28;20197;-60
2021/11/28 03:10:42;;;;;;;1.63;0.90;;;-0.60;95.30;;;;;;2072871;28;20239;-60
2021/11/28 03:11:42;;;;;;;1.25;1.05;;;-0.60;95.20;;;;;;2073120;28;20556;-60
2021/11/28 03:12:43;;;;;;;1.10;1.00;;;-0.60;95.10;;;;;;2072975;28;20205;-60
2021/11/28 03:13:49;;;;;;;2.03;1.10;;;-0.60;95.00;;;;;;2073133;28;20182;-60
2021/11/28 03:14:50;;;;;;;2.00;1.15;;;-0.60;95.00;;;;;;2073070;28;20182;-60
2021/11/28 03:15:55;;;;;;;2.13;0.80;;;-0.60;95.10;;;;;;2073135;28;20239;-61
2021/11/28 03:16:56;;;;;;;2.15;0.80;;;-0.60;95.20;;;;;;2073081;28;20768;-60
2021/11/28 03:17:57;;;;;;;3.80;1.10;;;-0.60;95.20;;;;;;2072958;28;20277;-60
2021/11/28 03:18:58;;;;;;;1.35;0.88;;;-0.60;95.10;;;;;;2073060;28;20236;-60
2021/11/28 03:19:59;;;;;;;2.07;0.97;;;-0.60;95.20;;;;;;2072762;28;20217;-60
2021/11/28 03:21:07;;;;;;;1.87;1.17;;;-0.70;95.30;;;;;;2073129;28;20192;-59
2021/11/28 03:22:08;;;;;;;3.15;1.00;;;-0.70;95.50;;;;;;2073125;28;20174;-60
2021/11/28 03:23:13;;;;;;;2.33;1.00;;;-0.70;95.50;;;;;;2073052;28;20667;-60
2021/11/28 03:24:14;;;;;;;2.25;0.90;;;-0.70;95.30;;;;;;2073014;28;20685;-60
2021/11/28 03:25:19;;;;;;;1.47;0.80;;;-0.70;95.20;;;;;;2072925;28;20170;-61
2021/11/28 03:26:35;;;;;;;3.20;1.02;;;-0.70;95.30;;;;;;2073092;28;20170;-60
2021/11/28 03:27:36;;;;;;;1.20;0.80;;;-0.70;95.20;;;;;;2072918;28;20642;-60
2021/11/28 03:28:54;;;;;;;1.00;0.90;;;-0.60;95.30;;;;;;2072942;28;20220;-60
2021/11/28 03:29:55;;;;;;;2.35;1.15;;;-0.60;95.30;;;;;;2072246;28;20193;-60
2021/11/28 03:30:56;;;;;;;0.83;0.83;;;-0.50;95.20;;;;;;2072971;28;20192;-60
2021/11/28 03:31:57;;;;;;;2.47;0.93;;;-0.50;95.00;;;;;;2072894;28;20182;-60
2021/11/28 03:32:58;;;;;;;1.73;0.85;;;-0.50;95.00;;;;;;2072980;28;20285;-61
2021/11/28 03:33:59;;;;;;;1.37;1.00;;;-0.50;95.00;;;;;;2072773;28;20200;-61
2021/11/28 03:35:00;;;;;;;3.10;0.90;;;-0.40;94.90;;;;;;2073073;28;20310;-60
2021/11/28 03:36:01;;;;;;;1.60;1.00;;;-0.40;94.70;;;;;;2072824;28;20655;-60
2021/11/28 03:37:02;;;;;;;1.43;1.07;;;-0.40;94.70;;;;;;2072715;28;20280;-61
2021/11/28 03:38:04;;;;;;;2.58;1.63;;;-0.40;94.70;;;;;;2072818;28;20224;-60
2021/11/28 03:39:09;;;;;;;3.33;1.60;;;-0.30;94.70;;;;;;2072783;28;20193;-60
2021/11/28 03:40:12;;;;;;;2.90;1.17;;;-0.30;94.70;;;;;;2072559;28;20396;-61
2021/11/28 03:41:15;;;;;;;1.23;0.90;;;-0.30;94.70;;;;;;2072841;28;20550;-59
2021/11/28 03:42:16;;;;;;;2.22;1.17;;;-0.30;94.60;;;;;;2072227;28;20174;-60
2021/11/28 03:43:17;;;;;;;0.90;0.80;;;-0.30;94.50;;;;;;2072264;28;20174;-60
2021/11/28 03:44:18;;;;;;;1.60;1.00;;;-0.40;94.70;;;;;;2072750;28;20549;-60
2021/11/28 03:45:19;;;;;;;0.90;0.90;;;-0.40;94.80;;;;;;2072982;28;20169;-59
2021/11/28 03:46:20;;;;;;;2.47;1.00;;;-0.40;94.90;;;;;;2072834;28;20211;-60
2021/11/28 03:47:20;;;;;;;2.53;1.30;;;-0.50;94.90;;;;;;2072840;28;20182;-59
2021/11/28 03:48:21;;;;;;;1.87;1.10;;;-0.50;95.00;;;;;;2072836;28;20239;-60
2021/11/28 03:49:22;;;;;;;1.20;1.10;;;-0.50;95.20;;;;;;2072822;28;20200;-60
2021/11/28 03:50:23;;;;;;;2.60;1.13;;;-0.50;95.50;;;;;;2072408;28;20194;-60
2021/11/28 03:51:24;;;;;;;1.70;0.87;;;-0.50;95.60;;;;;;2072893;28;20173;-60
2021/11/28 03:52:25;;;;;;;1.67;1.10;;;-0.50;95.70;;;;;;2072873;28;20376;-60
2021/11/28 03:53:26;;;;;;;1.33;0.97;;;-0.50;95.80;;;;;;2072875;28;20201;-61
2021/11/28 03:54:26;;;;;;;1.17;0.97;;;-0.50;95.60;;;;;;2072728;28;20209;-60
2021/11/28 03:55:27;;;;;;;1.83;0.90;;;-0.50;95.50;;;;;;2072826;28;20197;-60
2021/11/28 03:56:28;;;;;;;1.40;0.73;;;-0.50;95.50;;;;;;2072837;28;20671;-60
2021/11/28 03:57:28;;;;;;;1.50;0.83;;;-0.60;95.70;;;;;;2072864;28;20189;-59
2021/11/28 03:58:29;;;;;;;1.87;1.00;;;-0.60;95.90;;;;;;2072773;28;20181;-59
2021/11/28 03:59:30;;;;;;;1.20;0.80;;;-0.60;96.10;;;;;;2072494;28;20213;-59
2021/11/28 04:00:32;;;;;;;1.27;0.87;;;-0.60;96.30;;;;;;2072554;28;20440;-60
2021/11/28 04:01:32;;;;;;;1.63;1.00;;;-0.60;96.30;;;;;;2072625;28;20250;-61
2021/11/28 04:02:33;;;;;;;1.27;1.07;;;-0.60;96.50;;;;;;2072644;28;20177;-59
2021/11/28 04:03:34;;;;;;;1.87;1.07;;;-0.60;96.50;;;;;;2072595;28;20569;-58
2021/11/28 04:04:35;;;;;;;1.60;1.02;;;-0.60;96.50;;;;;;2072457;28;20256;-61
2021/11/28 04:05:37;;;;;;;2.87;0.97;;;-0.50;96.50;;;;;;2072473;28;20182;-60
2021/11/28 04:06:37;;;;;;;3.30;0.93;;;-0.60;96.40;;;;;;2072781;28;20275;-59
2021/11/28 04:07:38;;;;;;;1.20;0.90;;;-0.60;96.40;;;;;;2072062;28;20216;-60
2021/11/28 04:08:41;;;;;;;1.90;1.00;;;-0.60;96.50;;;;;;2072156;28;20169;-60
2021/11/28 04:09:42;;;;;;;2.28;1.00;;;-0.60;96.60;;;;;;2072232;28;20189;-59
2021/11/28 04:10:42;;;;;;;2.15;1.40;;;-0.60;96.60;;;;;;2072231;28;20214;-60
2021/11/28 04:11:43;;;;;;;2.60;0.90;;;-0.60;96.60;;;;;;2072042;28;20682;-60
2021/11/28 04:12:44;;;;;;;3.00;1.10;;;-0.60;96.60;;;;;;2072763;28;20184;-60
2021/11/28 04:13:45;;;;;;;1.30;0.90;;;-0.60;96.60;;;;;;2072675;28;20562;-60
2021/11/28 04:14:46;;;;;;;1.95;1.25;;;-0.60;96.60;;;;;;2072772;28;20232;-59
2021/11/28 04:15:47;;;;;;;1.23;0.90;;;-0.50;96.60;;;;;;2072707;28;20323;-60
2021/11/28 04:16:48;;;;;;;2.75;1.30;;;-0.50;96.60;;;;;;2072603;28;20631;-60
2021/11/28 04:17:48;;;;;;;3.07;1.37;;;-0.40;96.40;;;;;;2072729;28;20174;-59
2021/11/28 04:18:49;;;;;;;1.43;1.07;;;-0.40;96.30;;;;;;2072779;28;20188;-59
2021/11/28 04:19:54;;;;;;;3.27;1.10;;;-0.40;96.20;;;;;;2072304;28;20208;-60
2021/11/28 04:20:54;;;;;;;2.50;1.10;;;-0.30;96.30;;;;;;2072235;28;20265;-57
2021/11/28 04:21:55;;;;;;;1.80;1.00;;;-0.30;96.20;;;;;;2071967;28;20178;-59
2021/11/28 04:22:56;;;;;;;2.27;1.00;;;-0.30;96.10;;;;;;2072660;28;20654;-60
2021/11/28 04:23:57;;;;;;;2.90;1.10;;;-0.30;96.20;;;;;;2072662;28;20182;-60
2021/11/28 04:24:57;;;;;;;2.07;0.80;;;-0.30;96.20;;;;;;2072679;28;20189;-59
2021/11/28 04:25:58;;;;;;;3.50;1.67;;;-0.30;96.20;;;;;;2072636;28;20194;-60
2021/11/28 04:26:59;;;;;;;2.17;0.90;;;-0.20;96.20;;;;;;2072710;28;20530;-60
2021/11/28 04:28:00;;;;;;;2.53;1.00;;;-0.20;96.20;;;;;;2072593;28;20185;-58
2021/11/28 04:29:01;;;;;;;1.63;1.20;;;-0.20;96.10;;;;;;2072678;28;20193;-58
2021/11/28 04:30:04;;;;;;;1.63;1.00;;;-0.20;96.10;;;;;;2071599;28;20457;-60
2021/11/28 04:31:04;;;;;;;2.60;0.90;;;-0.20;96.00;;;;;;2072151;28;20260;-60
2021/11/28 04:32:06;;;;;;;1.20;0.80;;;-0.20;96.00;;;;;;2072624;28;20177;-58
2021/11/28 04:33:08;;;;;;;5.07;0.90;;;-0.20;96.00;;;;;;2072563;28;20209;-60
2021/11/28 04:34:08;;;;;;;0.98;0.88;;;-0.20;95.90;;;;;;2072562;28;20186;-60
2021/11/28 04:35:10;;;;;;;1.87;1.10;;;-0.20;95.80;;;;;;2072730;28;20240;-59
2021/11/28 04:36:10;;;;;;;2.25;1.23;;;-0.20;95.80;;;;;;2072493;28;20172;-60
2021/11/28 04:37:11;;;;;;;1.37;1.00;;;-0.20;95.90;;;;;;2072545;28;20185;-61
2021/11/28 04:38:12;;;;;;;2.53;0.97;;;-0.20;96.10;;;;;;2072570;28;20174;-60
2021/11/28 04:39:13;;;;;;;1.83;0.93;;;-0.30;96.10;;;;;;2072506;28;20750;-59
2021/11/28 04:40:14;;;;;;;1.30;0.80;;;-0.30;96.10;;;;;;2072333;28;20202;-59
2021/11/28 04:41:15;;;;;;;2.15;1.45;;;-0.30;96.10;;;;;;2072592;28;20253;-60
2021/11/28 04:42:16;;;;;;;2.00;1.17;;;-0.30;96.20;;;;;;2074136;28;20300;-58
2021/11/28 04:43:17;;;;;;;1.48;1.10;;;-0.30;96.20;;;;;;2074135;28;20208;-60
2021/11/28 04:44:18;;;;;;;3.37;1.00;;;-0.30;96.20;;;;;;2074239;28;20181;-60
2021/11/28 04:45:19;;;;;;;1.50;1.13;;;-0.30;96.30;;;;;;2074163;28;20166;-60
2021/11/28 04:46:19;;;;;;;3.27;0.93;;;-0.40;96.20;;;;;;2073481;28;20181;-60
2021/11/28 04:47:20;;;;;;;1.20;1.07;;;-0.40;96.20;;;;;;2073519;28;20193;-60
2021/11/28 04:48:21;;;;;;;1.67;1.20;;;-0.40;96.30;;;;;;2074157;28;20689;-60
2021/11/28 04:49:22;;;;;;;3.47;1.13;;;-0.40;96.30;;;;;;2073989;28;20867;-60
2021/11/28 04:50:22;;;;;;;2.27;1.03;;;-0.40;96.40;;;;;;2073936;28;20181;-60
2021/11/28 04:51:23;;;;;;;1.33;1.00;;;-0.30;96.30;;;;;;2074149;28;20400;-59
2021/11/28 04:52:24;;;;;;;1.63;1.10;;;-0.30;96.30;;;;;;2074285;28;20174;-58
2021/11/28 04:53:24;;;;;;;1.97;1.13;;;-0.30;96.20;;;;;;2074156;28;20650;-59
2021/11/28 04:54:25;;;;;;;1.20;1.03;;;-0.40;96.20;;;;;;2074158;28;20627;-61
2021/11/28 04:55:26;;;;;;;2.90;1.20;;;-0.40;96.40;;;;;;2074144;28;20162;-59
2021/11/28 04:56:28;;;;;;;1.73;1.00;;;-0.40;96.50;;;;;;2074206;28;20684;-59
2021/11/28 04:57:28;;;;;;;3.13;1.17;;;-0.50;96.50;;;;;;2074074;28;20170;-58
2021/11/28 04:58:29;;;;;;;2.03;1.03;;;-0.50;96.50;;;;;;2074162;28;20170;-60
2021/11/28 04:59:30;;;;;;;1.17;1.00;;;-0.50;96.50;;;;;;2073672;28;20206;-59
2021/11/28 05:00:31;;;;;;;2.75;1.23;;;-0.50;96.50;;;;;;2073976;28;20174;-60
2021/11/28 05:01:32;;;;;;;1.67;1.20;;;-0.50;96.50;;;;;;2074053;28;20182;-60
2021/11/28 05:02:32;;;;;;;2.67;1.53;;;-0.50;96.50;;;;;;2074040;28;20177;-60
2021/11/28 05:03:33;;;;;;;1.27;1.00;;;-0.50;96.50;;;;;;2073968;28;20182;-59
2021/11/28 05:04:34;;;;;;;3.27;1.30;;;-0.50;96.40;;;;;;2065170;28;20193;-60
2021/11/28 05:05:35;;;;;;;1.37;1.20;;;-0.50;96.40;;;;;;2065259;28;20186;-60
2021/11/28 05:06:35;;;;;;;2.67;1.43;;;-0.50;96.40;;;;;;2074020;28;20177;-59
2021/11/28 05:07:36;;;;;;;2.03;1.50;;;-0.40;96.40;;;;;;2074093;28;20181;-59
2021/11/28 05:08:37;;;;;;;1.80;1.37;;;-0.40;96.40;;;;;;2074100;28;20178;-60
2021/11/28 05:09:37;;;;;;;4.47;1.40;;;-0.40;96.40;;;;;;2073555;28;21325;-59
2021/11/28 05:10:38;;;;;;;2.27;1.40;;;-0.40;96.40;;;;;;2073909;28;20181;-59
2021/11/28 05:11:39;;;;;;;2.43;1.00;;;-0.50;96.40;;;;;;2073834;28;20189;-59
2021/11/28 05:12:40;;;;;;;1.98;1.20;;;-0.50;96.30;;;;;;2073407;28;20240;-60
2021/11/28 05:13:41;;;;;;;3.97;1.20;;;-0.50;96.40;;;;;;2073521;28;20244;-59
2021/11/28 05:14:42;;;;;;;1.10;1.00;;;-0.50;96.50;;;;;;2074275;28;20205;-60
2021/11/28 05:15:42;;;;;;;1.50;1.27;;;-0.50;96.50;;;;;;2073969;28;20252;-60
2021/11/28 05:16:43;;;;;;;5.33;1.77;;;-0.50;96.50;;;;;;2074112;28;20188;-60
2021/11/28 05:17:44;;;;;;;1.37;1.10;;;-0.50;96.50;;;;;;2074112;28;20261;-60
2021/11/28 05:18:45;;;;;;;2.20;1.40;;;-0.60;96.40;;;;;;2074011;28;20585;-60
2021/11/28 05:19:45;;;;;;;4.33;1.57;;;-0.60;96.50;;;;;;2073649;28;20204;-60
2021/11/28 05:20:47;;;;;;;3.83;1.50;;;-0.60;96.50;;;;;;2074127;28;20212;-60
2021/11/28 05:21:48;;;;;;;2.25;1.48;;;-0.60;96.50;;;;;;2074345;28;20174;-60
2021/11/28 05:22:48;;;;;;;2.17;1.50;;;-0.60;96.50;;;;;;2074019;28;20181;-61
2021/11/28 05:23:49;;;;;;;3.17;1.30;;;-0.60;96.50;;;;;;2074191;28;20260;-60
2021/11/28 05:24:51;;;;;;;2.43;1.43;;;-0.60;96.60;;;;;;2074026;28;20186;-60
2021/11/28 05:25:52;;;;;;;3.13;1.45;;;-0.70;96.60;;;;;;2074236;28;20178;-60
2021/11/28 05:26:53;;;;;;;2.50;1.43;;;-0.60;96.60;;;;;;2073976;28;20320;-60
2021/11/28 05:27:54;;;;;;;1.77;1.27;;;-0.60;96.50;;;;;;2073972;28;20293;-60
2021/11/28 05:28:54;;;;;;;3.50;1.50;;;-0.60;96.50;;;;;;2073976;28;20329;-61
2021/11/28 05:29:55;;;;;;;4.60;1.60;;;-0.60;96.40;;;;;;2073847;28;20240;-60